sensor_id;sensor_type;location;lat;lon;timestamp;pressure;altitude;pressure_sealevel;temperature
24714;BMP280;12820;51.580;5.010;2022-11-11T00:00:38;102837.69;;;12.57
24714;BMP280;12820;51.580;5.010;2022-11-11T00:06:09;102839.47;;;12.61
24714;BMP280;12820;51.580;5.010;2022-11-11T00:11:30;102844.53;;;12.64
24714;BMP280;12820;51.580;5.010;2022-11-11T00:16:50;102842.88;;;12.67
24714;BMP280;12820;51.580;5.010;2022-11-11T00:22:28;102837.03;;;12.70
24714;BMP280;12820;51.580;5.010;2022-11-11T00:28:09;102842.06;;;12.73
24714;BMP280;12820;51.580;5.010;2022-11-11T00:33:29;102848.00;;;12.76
24714;BMP280;12820;51.580;5.010;2022-11-11T00:38:50;102853.09;;;12.80
24714;BMP280;12820;51.580;5.010;2022-11-11T00:44:11;102858.19;;;12.85
24714;BMP280;12820;51.580;5.010;2022-11-11T00:49:31;102867.44;;;12.87
24714;BMP280;12820;51.580;5.010;2022-11-11T00:55:10;102864.94;;;12.89
24714;BMP280;12820;51.580;5.010;2022-11-11T01:00:30;102872.50;;;12.90
24714;BMP280;12820;51.580;5.010;2022-11-11T01:05:51;102868.34;;;12.94
24714;BMP280;12820;51.580;5.010;2022-11-11T01:11:13;102885.19;;;12.96
24714;BMP280;12820;51.580;5.010;2022-11-11T01:16:34;102884.38;;;13.00
24714;BMP280;12820;51.580;5.010;2022-11-11T01:21:54;102872.59;;;13.00
24714;BMP280;12820;51.580;5.010;2022-11-11T01:27:14;102864.22;;;13.03
24714;BMP280;12820;51.580;5.010;2022-11-11T01:32:35;102863.41;;;13.04
24714;BMP280;12820;51.580;5.010;2022-11-11T01:37:56;102854.13;;;13.06
24714;BMP280;12820;51.580;5.010;2022-11-11T01:43:18;102860.88;;;13.07
24714;BMP280;12820;51.580;5.010;2022-11-11T01:48:43;102847.41;;;13.09
24714;BMP280;12820;51.580;5.010;2022-11-11T01:54:36;102849.94;;;13.09
24714;BMP280;12820;51.580;5.010;2022-11-11T02:00:05;102841.56;;;13.09
24714;BMP280;12820;51.580;5.010;2022-11-11T02:05:26;102845.75;;;13.10
24714;BMP280;12820;51.580;5.010;2022-11-11T02:11:08;102835.63;;;13.10
24714;BMP280;12820;51.580;5.010;2022-11-11T02:16:30;102840.72;;;13.11
24714;BMP280;12820;51.580;5.010;2022-11-11T02:21:59;102854.19;;;13.12
24714;BMP280;12820;51.580;5.010;2022-11-11T02:27:21;102847.44;;;13.11
24714;BMP280;12820;51.580;5.010;2022-11-11T02:32:44;102838.19;;;13.11
24714;BMP280;12820;51.580;5.010;2022-11-11T02:38:05;102840.69;;;13.10
24714;BMP280;12820;51.580;5.010;2022-11-11T02:43:31;102837.31;;;13.08
24714;BMP280;12820;51.580;5.010;2022-11-11T02:48:52;102833.09;;;13.07
24714;BMP280;12820;51.580;5.010;2022-11-11T02:54:12;102812.88;;;13.05
24714;BMP280;12820;51.580;5.010;2022-11-11T02:59:34;102826.34;;;13.04
24714;BMP280;12820;51.580;5.010;2022-11-11T03:04:56;102823.81;;;13.03
24714;BMP280;12820;51.580;5.010;2022-11-11T03:10:16;102810.34;;;13.02
24714;BMP280;12820;51.580;5.010;2022-11-11T03:15:37;102824.63;;;13.00
24714;BMP280;12820;51.580;5.010;2022-11-11T03:20:57;102815.38;;;12.98
24714;BMP280;12820;51.580;5.010;2022-11-11T03:26:46;102817.03;;;12.96
24714;BMP280;12820;51.580;5.010;2022-11-11T03:32:06;102822.09;;;12.95
24714;BMP280;12820;51.580;5.010;2022-11-11T03:37:27;102817.81;;;12.91
24714;BMP280;12820;51.580;5.010;2022-11-11T03:43:05;102810.25;;;12.89
24714;BMP280;12820;51.580;5.010;2022-11-11T03:48:28;102824.53;;;12.86
24714;BMP280;12820;51.580;5.010;2022-11-11T03:53:48;102817.78;;;12.83
24714;BMP280;12820;51.580;5.010;2022-11-11T03:59:08;102830.38;;;12.80
24714;BMP280;12820;51.580;5.010;2022-11-11T04:04:29;102828.66;;;12.78
24714;BMP280;12820;51.580;5.010;2022-11-11T04:10:07;102840.44;;;12.75
24714;BMP280;12820;51.580;5.010;2022-11-11T04:15:42;102846.28;;;12.71
24714;BMP280;12820;51.580;5.010;2022-11-11T04:21:23;102848.78;;;12.69
24714;BMP280;12820;51.580;5.010;2022-11-11T04:27:10;102847.91;;;12.66
24714;BMP280;12820;51.580;5.010;2022-11-11T04:32:30;102858.84;;;12.65
24714;BMP280;12820;51.580;5.010;2022-11-11T04:38:01;102857.13;;;12.61
24714;BMP280;12820;51.580;5.010;2022-11-11T04:43:53;102853.69;;;12.58
24714;BMP280;12820;51.580;5.010;2022-11-11T04:49:32;102854.47;;;12.54
24714;BMP280;12820;51.580;5.010;2022-11-11T04:54:53;102860.34;;;12.51
24714;BMP280;12820;51.580;5.010;2022-11-11T05:00:34;102847.72;;;12.50
24714;BMP280;12820;51.580;5.010;2022-11-11T05:05:58;102857.78;;;12.47
24714;BMP280;12820;51.580;5.010;2022-11-11T05:11:37;102851.03;;;12.44
24714;BMP280;12820;51.580;5.010;2022-11-11T05:16:57;102855.22;;;12.43
24714;BMP280;12820;51.580;5.010;2022-11-11T05:22:42;102861.06;;;12.40
24714;BMP280;12820;51.580;5.010;2022-11-11T05:28:02;102858.53;;;12.37
24714;BMP280;12820;51.580;5.010;2022-11-11T05:33:22;102853.44;;;12.33
24714;BMP280;12820;51.580;5.010;2022-11-11T05:38:43;102864.34;;;12.32
24714;BMP280;12820;51.580;5.010;2022-11-11T05:44:03;102856.75;;;12.29
24714;BMP280;12820;51.580;5.010;2022-11-11T05:49:23;102853.38;;;12.27
24714;BMP280;12820;51.580;5.010;2022-11-11T05:54:44;102860.09;;;12.26
24714;BMP280;12820;51.580;5.010;2022-11-11T06:00:05;102855.81;;;12.21
24714;BMP280;12820;51.580;5.010;2022-11-11T06:05:25;102853.25;;;12.17
24714;BMP280;12820;51.580;5.010;2022-11-11T06:10:45;102851.53;;;12.14
24714;BMP280;12820;51.580;5.010;2022-11-11T06:16:05;102856.56;;;12.11
24714;BMP280;12820;51.580;5.010;2022-11-11T06:21:26;102852.31;;;12.07
24714;BMP280;12820;51.580;5.010;2022-11-11T06:26:46;102861.53;;;12.04
24714;BMP280;12820;51.580;5.010;2022-11-11T06:32:06;102865.66;;;12.01
24714;BMP280;12820;51.580;5.010;2022-11-11T06:37:26;102874.88;;;11.97
24714;BMP280;12820;51.580;5.010;2022-11-11T06:42:46;102876.50;;;11.94
24714;BMP280;12820;51.580;5.010;2022-11-11T06:48:07;102878.13;;;11.90
24714;BMP280;12820;51.580;5.010;2022-11-11T06:53:27;102885.69;;;11.89
24714;BMP280;12820;51.580;5.010;2022-11-11T06:58:48;102880.59;;;11.86
24714;BMP280;12820;51.580;5.010;2022-11-11T07:04:08;102883.06;;;11.82
24714;BMP280;12820;51.580;5.010;2022-11-11T07:09:28;102882.19;;;11.78
24714;BMP280;12820;51.580;5.010;2022-11-11T07:14:49;102890.56;;;11.76
24714;BMP280;12820;51.580;5.010;2022-11-11T07:20:09;102891.34;;;11.73
24714;BMP280;12820;51.580;5.010;2022-11-11T07:25:30;102904.81;;;11.74
24714;BMP280;12820;51.580;5.010;2022-11-11T07:30:50;102907.34;;;11.75
24714;BMP280;12820;51.580;5.010;2022-11-11T07:36:11;102909.91;;;11.78
24714;BMP280;12820;51.580;5.010;2022-11-11T07:41:32;102939.41;;;11.85
24714;BMP280;12820;51.580;5.010;2022-11-11T07:46:52;102939.47;;;11.90
24714;BMP280;12820;51.580;5.010;2022-11-11T07:52:12;102952.13;;;11.95
24714;BMP280;12820;51.580;5.010;2022-11-11T07:57:32;102969.03;;;12.02
24714;BMP280;12820;51.580;5.010;2022-11-11T08:02:52;102959.88;;;12.08
24714;BMP280;12820;51.580;5.010;2022-11-11T08:08:18;102971.72;;;12.15
24714;BMP280;12820;51.580;5.010;2022-11-11T08:13:45;102985.31;;;12.23
24714;BMP280;12820;51.580;5.010;2022-11-11T08:19:05;102977.75;;;12.26
24714;BMP280;12820;51.580;5.010;2022-11-11T08:24:25;102990.44;;;12.33
24714;BMP280;12820;51.580;5.010;2022-11-11T08:30:07;102994.72;;;12.39
24714;BMP280;12820;51.580;5.010;2022-11-11T08:35:28;102996.53;;;12.47
24714;BMP280;12820;51.580;5.010;2022-11-11T08:40:49;102989.91;;;12.56
24714;BMP280;12820;51.580;5.010;2022-11-11T08:46:09;102993.44;;;12.65
24714;BMP280;12820;51.580;5.010;2022-11-11T08:51:31;102998.53;;;12.73
24714;BMP280;12820;51.580;5.010;2022-11-11T08:57:02;103015.50;;;12.85
24714;BMP280;12820;51.580;5.010;2022-11-11T09:02:22;103019.78;;;12.92
24714;BMP280;12820;51.580;5.010;2022-11-11T09:07:42;103024.03;;;12.96
24714;BMP280;12820;51.580;5.010;2022-11-11T09:13:04;103022.47;;;13.07
24714;BMP280;12820;51.580;5.010;2022-11-11T09:18:25;103025.91;;;13.14
24714;BMP280;12820;51.580;5.010;2022-11-11T09:23:45;103019.25;;;13.24
24714;BMP280;12820;51.580;5.010;2022-11-11T09:29:05;103020.19;;;13.33
24714;BMP280;12820;51.580;5.010;2022-11-11T09:34:25;103019.50;;;13.46
24714;BMP280;12820;51.580;5.010;2022-11-11T09:39:45;103020.44;;;13.62
24714;BMP280;12820;51.580;5.010;2022-11-11T09:50:47;103035.09;;;13.98
24714;BMP280;12820;51.580;5.010;2022-11-11T09:56:17;103033.50;;;14.15
24714;BMP280;12820;51.580;5.010;2022-11-11T10:01:57;103029.38;;;14.31
24714;BMP280;12820;51.580;5.010;2022-11-11T10:07:27;103044.59;;;14.40
24714;BMP280;12820;51.580;5.010;2022-11-11T10:12:55;103043.78;;;14.44
24714;BMP280;12820;51.580;5.010;2022-11-11T10:18:39;103042.97;;;14.54
24714;BMP280;12820;51.580;5.010;2022-11-11T10:24:05;103035.44;;;14.71
24714;BMP280;12820;51.580;5.010;2022-11-11T10:29:41;103038.88;;;14.79
24714;BMP280;12820;51.580;5.010;2022-11-11T10:35:21;103051.53;;;14.86
24714;BMP280;12820;51.580;5.010;2022-11-11T10:40:47;103040.63;;;14.94
24714;BMP280;12820;51.580;5.010;2022-11-11T10:46:31;103037.28;;;15.01
24714;BMP280;12820;51.580;5.010;2022-11-11T10:52:19;103037.31;;;15.11
24714;BMP280;12820;51.580;5.010;2022-11-11T10:57:52;103035.63;;;15.28
24714;BMP280;12820;51.580;5.010;2022-11-11T11:03:16;103029.72;;;15.44
24714;BMP280;12820;51.580;5.010;2022-11-11T11:08:52;103039.03;;;15.71
24714;BMP280;12820;51.580;5.010;2022-11-11T11:14:26;103012.78;;;16.08
24714;BMP280;12820;51.580;5.010;2022-11-11T11:20:15;103016.66;;;17.00
24714;BMP280;12820;51.580;5.010;2022-11-11T11:25:35;103010.78;;;18.71
24714;BMP280;12820;51.580;5.010;2022-11-11T11:31:04;103011.50;;;20.29
24714;BMP280;12820;51.580;5.010;2022-11-11T11:36:25;103005.41;;;21.14
24714;BMP280;12820;51.580;5.010;2022-11-11T11:41:45;102987.81;;;21.68
24714;BMP280;12820;51.580;5.010;2022-11-11T11:47:21;102981.56;;;22.68
24714;BMP280;12820;51.580;5.010;2022-11-11T11:58:52;102964.56;;;23.17
24714;BMP280;12820;51.580;5.010;2022-11-11T12:10:04;102975.28;;;22.78
24714;BMP280;12820;51.580;5.010;2022-11-11T12:15:33;102989.06;;;22.45
24714;BMP280;12820;51.580;5.010;2022-11-11T12:20:57;102978.47;;;21.67
24714;BMP280;12820;51.580;5.010;2022-11-11T12:32:37;102956.63;;;20.86
24714;BMP280;12820;51.580;5.010;2022-11-11T12:44:07;102947.47;;;21.46
24714;BMP280;12820;51.580;5.010;2022-11-11T12:55:26;102953.00;;;21.62
24714;BMP280;12820;51.580;5.010;2022-11-11T13:06:59;102953.72;;;22.28
24714;BMP280;12820;51.580;5.010;2022-11-11T13:12:34;102947.34;;;22.96
24714;BMP280;12820;51.580;5.010;2022-11-11T13:17:58;102945.53;;;23.50
24714;BMP280;12820;51.580;5.010;2022-11-11T13:23:20;102944.09;;;23.89
24714;BMP280;12820;51.580;5.010;2022-11-11T13:28:43;102930.41;;;23.88
24714;BMP280;12820;51.580;5.010;2022-11-11T13:34:11;102944.16;;;23.87
24714;BMP280;12820;51.580;5.010;2022-11-11T13:39:38;102933.19;;;23.83
24714;BMP280;12820;51.580;5.010;2022-11-11T13:45:02;102930.84;;;23.77
24714;BMP280;12820;51.580;5.010;2022-11-11T13:50:35;102928.88;;;23.61
24714;BMP280;12820;51.580;5.010;2022-11-11T13:56:00;102929.44;;;23.45
24714;BMP280;12820;51.580;5.010;2022-11-11T14:01:22;102926.59;;;23.28
24714;BMP280;12820;51.580;5.010;2022-11-11T14:06:50;102927.53;;;23.26
24714;BMP280;12820;51.580;5.010;2022-11-11T14:12:32;102916.25;;;23.30
24714;BMP280;12820;51.580;5.010;2022-11-11T14:17:53;102932.28;;;22.85
24714;BMP280;12820;51.580;5.010;2022-11-11T14:28:52;102917.78;;;21.70
24714;BMP280;12820;51.580;5.010;2022-11-11T14:34:40;102920.84;;;21.20
24714;BMP280;12820;51.580;5.010;2022-11-11T14:40:10;102914.03;;;20.83
24714;BMP280;12820;51.580;5.010;2022-11-11T14:50:51;102909.22;;;19.93
24714;BMP280;12820;51.580;5.010;2022-11-11T14:56:14;102913.34;;;19.58
24714;BMP280;12820;51.580;5.010;2022-11-11T15:01:36;102917.34;;;19.21
24714;BMP280;12820;51.580;5.010;2022-11-11T15:07:03;102925.53;;;18.89
24714;BMP280;12820;51.580;5.010;2022-11-11T15:12:36;102923.47;;;18.56
24714;BMP280;12820;51.580;5.010;2022-11-11T15:24:12;102924.28;;;17.93
24714;BMP280;12820;51.580;5.010;2022-11-11T15:29:49;102930.56;;;17.61
24714;BMP280;12820;51.580;5.010;2022-11-11T15:40:49;102935.34;;;17.03
24714;BMP280;12820;51.580;5.010;2022-11-11T15:46:28;102930.44;;;16.72
24714;BMP280;12820;51.580;5.010;2022-11-11T15:51:55;102939.06;;;16.43
24714;BMP280;12820;51.580;5.010;2022-11-11T15:57:25;102943.41;;;16.15
24714;BMP280;12820;51.580;5.010;2022-11-11T16:02:46;102951.91;;;15.89
24714;BMP280;12820;51.580;5.010;2022-11-11T16:08:07;102957.88;;;15.66
24714;BMP280;12820;51.580;5.010;2022-11-11T16:13:39;102951.16;;;15.42
24714;BMP280;12820;51.580;5.010;2022-11-11T16:19:06;102954.56;;;15.21
24714;BMP280;12820;51.580;5.010;2022-11-11T16:24:31;102958.75;;;15.00
24714;BMP280;12820;51.580;5.010;2022-11-11T16:29:53;102964.56;;;14.80
24714;BMP280;12820;51.580;5.010;2022-11-11T16:35:40;102971.28;;;14.59
24714;BMP280;12820;51.580;5.010;2022-11-11T16:41:00;102967.00;;;14.40
24714;BMP280;12820;51.580;5.010;2022-11-11T16:51:56;102971.09;;;14.14
24714;BMP280;12820;51.580;5.010;2022-11-11T16:57:29;102987.88;;;13.97
24714;BMP280;12820;51.580;5.010;2022-11-11T17:08:33;102984.31;;;13.72
24714;BMP280;12820;51.580;5.010;2022-11-11T17:13:54;102987.59;;;13.62
24714;BMP280;12820;51.580;5.010;2022-11-11T17:19:14;102986.69;;;13.53
24714;BMP280;12820;51.580;5.010;2022-11-11T17:24:34;102990.81;;;13.44
24714;BMP280;12820;51.580;5.010;2022-11-11T17:29:54;102998.34;;;13.36
24714;BMP280;12820;51.580;5.010;2022-11-11T17:35:14;102996.56;;;13.28
24714;BMP280;12820;51.580;5.010;2022-11-11T17:40:34;102992.31;;;13.21
24714;BMP280;12820;51.580;5.010;2022-11-11T17:45:54;102989.69;;;13.14
24714;BMP280;12820;51.580;5.010;2022-11-11T17:51:15;102995.56;;;13.09
24714;BMP280;12820;51.580;5.010;2022-11-11T17:56:35;102998.84;;;13.02
24714;BMP280;12820;51.580;5.010;2022-11-11T18:01:56;102992.03;;;12.95
24714;BMP280;12820;51.580;5.010;2022-11-11T18:07:16;103001.25;;;12.90
24714;BMP280;12820;51.580;5.010;2022-11-11T18:12:37;102999.53;;;12.85
24714;BMP280;12820;51.580;5.010;2022-11-11T18:17:57;103004.53;;;12.80
24714;BMP280;12820;51.580;5.010;2022-11-11T18:23:18;103005.28;;;12.74
24714;BMP280;12820;51.580;5.010;2022-11-11T18:28:38;103008.63;;;12.70
24714;BMP280;12820;51.580;5.010;2022-11-11T18:33:58;103002.63;;;12.63
24714;BMP280;12820;51.580;5.010;2022-11-11T18:39:18;103002.53;;;12.58
24714;BMP280;12820;51.580;5.010;2022-11-11T18:44:39;102996.59;;;12.53
24714;BMP280;12820;51.580;5.010;2022-11-11T18:49:59;102998.19;;;12.48
24714;BMP280;12820;51.580;5.010;2022-11-11T18:55:19;102997.31;;;12.43
24714;BMP280;12820;51.580;5.010;2022-11-11T19:00:39;102998.94;;;12.40
24714;BMP280;12820;51.580;5.010;2022-11-11T19:06:02;102990.47;;;12.35
24714;BMP280;12820;51.580;5.010;2022-11-11T19:11:23;102984.53;;;12.30
24714;BMP280;12820;51.580;5.010;2022-11-11T19:16:44;103002.16;;;12.27
24714;BMP280;12820;51.580;5.010;2022-11-11T19:22:05;102985.25;;;12.22
24714;BMP280;12820;51.580;5.010;2022-11-11T19:27:25;102981.84;;;12.17
24714;BMP280;12820;51.580;5.010;2022-11-11T19:32:45;102995.22;;;12.11
24714;BMP280;12820;51.580;5.010;2022-11-11T19:38:05;103009.44;;;12.07
24714;BMP280;12820;51.580;5.010;2022-11-11T19:43:25;103012.72;;;12.03
24714;BMP280;12820;51.580;5.010;2022-11-11T19:48:46;103010.94;;;11.96
24714;BMP280;12820;51.580;5.010;2022-11-11T19:54:10;103007.50;;;11.91
24714;BMP280;12820;51.580;5.010;2022-11-11T19:59:30;103014.16;;;11.86
24714;BMP280;12820;51.580;5.010;2022-11-11T20:04:50;103019.13;;;11.80
24714;BMP280;12820;51.580;5.010;2022-11-11T20:10:11;103028.28;;;11.77
24714;BMP280;12820;51.580;5.010;2022-11-11T20:15:32;103042.53;;;11.73
24714;BMP280;12820;51.580;5.010;2022-11-11T20:20:57;103049.16;;;11.69
24714;BMP280;12820;51.580;5.010;2022-11-11T20:26:18;103048.25;;;11.64
24714;BMP280;12820;51.580;5.010;2022-11-11T20:31:38;103056.56;;;11.60
24714;BMP280;12820;51.580;5.010;2022-11-11T20:36:58;103059.84;;;11.54
24714;BMP280;12820;51.580;5.010;2022-11-11T20:42:19;103065.63;;;11.49
24714;BMP280;12820;51.580;5.010;2022-11-11T20:47:39;103067.22;;;11.44
24714;BMP280;12820;51.580;5.010;2022-11-11T20:53:00;103089.75;;;11.38
24714;BMP280;12820;51.580;5.010;2022-11-11T20:58:20;103085.47;;;11.32
24714;BMP280;12820;51.580;5.010;2022-11-11T21:03:40;103086.16;;;11.26
24714;BMP280;12820;51.580;5.010;2022-11-11T21:09:02;103092.78;;;11.21
24714;BMP280;12820;51.580;5.010;2022-11-11T21:14:23;103096.91;;;11.18
24714;BMP280;12820;51.580;5.010;2022-11-11T21:19:43;103100.94;;;11.10
24714;BMP280;12820;51.580;5.010;2022-11-11T21:25:04;103096.66;;;11.05
24714;BMP280;12820;51.580;5.010;2022-11-11T21:30:24;103094.88;;;11.00
24714;BMP280;12820;51.580;5.010;2022-11-11T21:35:44;103093.84;;;10.92
24714;BMP280;12820;51.580;5.010;2022-11-11T21:41:08;103104.66;;;10.86
24714;BMP280;12820;51.580;5.010;2022-11-11T21:46:31;103112.94;;;10.81
24714;BMP280;12820;51.580;5.010;2022-11-11T21:51:53;103111.97;;;10.75
24714;BMP280;12820;51.580;5.010;2022-11-11T21:57:13;103106.75;;;10.67
24714;BMP280;12820;51.580;5.010;2022-11-11T22:02:33;103110.03;;;10.62
24714;BMP280;12820;51.580;5.010;2022-11-11T22:07:53;103111.50;;;10.54
24714;BMP280;12820;51.580;5.010;2022-11-11T22:13:13;103103.91;;;10.51
24714;BMP280;12820;51.580;5.010;2022-11-11T22:18:34;103097.06;;;10.46
24714;BMP280;12820;51.580;5.010;2022-11-11T22:23:58;103101.16;;;10.41
24714;BMP280;12820;51.580;5.010;2022-11-11T22:29:18;103105.22;;;10.36
24714;BMP280;12820;51.580;5.010;2022-11-11T22:34:38;103111.78;;;10.30
24714;BMP280;12820;51.580;5.010;2022-11-11T22:39:58;103122.53;;;10.25
24714;BMP280;12820;51.580;5.010;2022-11-11T22:45:18;103125.00;;;10.22
24714;BMP280;12820;51.580;5.010;2022-11-11T22:50:38;103129.94;;;10.17
24714;BMP280;12820;51.580;5.010;2022-11-11T22:56:06;103129.00;;;10.14
24714;BMP280;12820;51.580;5.010;2022-11-11T23:01:29;103127.25;;;10.12
24714;BMP280;12820;51.580;5.010;2022-11-11T23:06:50;103133.09;;;10.09
24714;BMP280;12820;51.580;5.010;2022-11-11T23:12:10;103133.84;;;10.07
24714;BMP280;12820;51.580;5.010;2022-11-11T23:17:31;103131.31;;;10.05
24714;BMP280;12820;51.580;5.010;2022-11-11T23:22:51;103127.91;;;10.03
24714;BMP280;12820;51.580;5.010;2022-11-11T23:28:11;103119.50;;;10.03
24714;BMP280;12820;51.580;5.010;2022-11-11T23:33:32;103117.78;;;10.00
24714;BMP280;12820;51.580;5.010;2022-11-11T23:38:53;103126.13;;;9.99
24714;BMP280;12820;51.580;5.010;2022-11-11T23:44:14;103109.34;;;9.98
24714;BMP280;12820;51.580;5.010;2022-11-11T23:49:34;103116.84;;;9.95
24714;BMP280;12820;51.580;5.010;2022-11-11T23:54:54;103113.38;;;9.92
